sensor_id;sensor_type;location;lat;lon;timestamp;P1;durP1;ratioP1;P2;durP2;ratioP2
28192;SDS011;15473;50.840;3.396;2023-03-23T00:01:02;5.55;;;3.25;;
28192;SDS011;15473;50.840;3.396;2023-03-23T00:03:35;3.70;;;2.90;;
28192;SDS011;15473;50.840;3.396;2023-03-23T00:06:08;5.75;;;3.35;;
28192;SDS011;15473;50.840;3.396;2023-03-23T00:08:39;5.75;;;3.05;;
28192;SDS011;15473;50.840;3.396;2023-03-23T00:11:30;3.42;;;2.72;;
28192;SDS011;15473;50.840;3.396;2023-03-23T00:14:03;4.47;;;2.80;;
28192;SDS011;15473;50.840;3.396;2023-03-23T00:16:37;5.55;;;2.70;;
28192;SDS011;15473;50.840;3.396;2023-03-23T00:19:15;3.60;;;2.25;;
28192;SDS011;15473;50.840;3.396;2023-03-23T00:21:46;4.42;;;2.67;;
28192;SDS011;15473;50.840;3.396;2023-03-23T00:24:18;4.75;;;2.20;;
28192;SDS011;15473;50.840;3.396;2023-03-23T00:26:48;4.47;;;2.25;;
28192;SDS011;15473;50.840;3.396;2023-03-23T00:29:21;4.58;;;2.20;;
28192;SDS011;15473;50.840;3.396;2023-03-23T00:31:52;4.97;;;2.40;;
28192;SDS011;15473;50.840;3.396;2023-03-23T00:34:23;4.37;;;2.35;;
28192;SDS011;15473;50.840;3.396;2023-03-23T00:36:54;1.95;;;1.82;;
28192;SDS011;15473;50.840;3.396;2023-03-23T00:39:27;7.42;;;2.83;;
28192;SDS011;15473;50.840;3.396;2023-03-23T00:42:04;2.67;;;1.80;;
28192;SDS011;15473;50.840;3.396;2023-03-23T00:44:34;2.62;;;1.98;;
28192;SDS011;15473;50.840;3.396;2023-03-23T00:47:05;4.78;;;2.08;;
28192;SDS011;15473;50.840;3.396;2023-03-23T00:49:43;2.52;;;1.87;;
28192;SDS011;15473;50.840;3.396;2023-03-23T00:52:14;4.20;;;2.10;;
28192;SDS011;15473;50.840;3.396;2023-03-23T00:54:45;2.12;;;1.92;;
28192;SDS011;15473;50.840;3.396;2023-03-23T00:57:15;3.00;;;2.05;;
28192;SDS011;15473;50.840;3.396;2023-03-23T00:59:46;3.47;;;2.30;;
28192;SDS011;15473;50.840;3.396;2023-03-23T01:02:30;4.60;;;2.30;;
28192;SDS011;15473;50.840;3.396;2023-03-23T01:05:00;4.00;;;2.35;;
28192;SDS011;15473;50.840;3.396;2023-03-23T01:07:37;3.60;;;2.47;;
28192;SDS011;15473;50.840;3.396;2023-03-23T01:10:08;3.12;;;2.10;;
28192;SDS011;15473;50.840;3.396;2023-03-23T01:12:40;7.30;;;2.12;;
28192;SDS011;15473;50.840;3.396;2023-03-23T01:15:13;2.70;;;2.05;;
28192;SDS011;15473;50.840;3.396;2023-03-23T01:17:45;4.17;;;1.85;;
28192;SDS011;15473;50.840;3.396;2023-03-23T01:20:16;3.58;;;1.92;;
28192;SDS011;15473;50.840;3.396;2023-03-23T01:22:47;2.98;;;1.75;;
28192;SDS011;15473;50.840;3.396;2023-03-23T01:25:32;3.15;;;2.20;;
28192;SDS011;15473;50.840;3.396;2023-03-23T01:28:04;2.75;;;1.95;;
28192;SDS011;15473;50.840;3.396;2023-03-23T01:30:34;2.15;;;1.92;;
28192;SDS011;15473;50.840;3.396;2023-03-23T01:33:05;5.37;;;1.70;;
28192;SDS011;15473;50.840;3.396;2023-03-23T01:35:36;1.90;;;1.67;;
28192;SDS011;15473;50.840;3.396;2023-03-23T01:40:40;3.05;;;1.87;;
28192;SDS011;15473;50.840;3.396;2023-03-23T01:43:14;3.33;;;1.70;;
28192;SDS011;15473;50.840;3.396;2023-03-23T01:45:45;3.33;;;1.70;;
28192;SDS011;15473;50.840;3.396;2023-03-23T01:48:28;4.03;;;1.50;;
28192;SDS011;15473;50.840;3.396;2023-03-23T01:51:14;1.52;;;1.42;;
28192;SDS011;15473;50.840;3.396;2023-03-23T01:53:47;3.55;;;1.67;;
28192;SDS011;15473;50.840;3.396;2023-03-23T01:56:22;3.00;;;1.37;;
28192;SDS011;15473;50.840;3.396;2023-03-23T01:59:00;6.55;;;1.42;;
28192;SDS011;15473;50.840;3.396;2023-03-23T02:01:36;3.30;;;1.60;;
28192;SDS011;15473;50.840;3.396;2023-03-23T02:04:11;3.40;;;1.27;;
28192;SDS011;15473;50.840;3.396;2023-03-23T02:06:53;3.87;;;1.67;;
28192;SDS011;15473;50.840;3.396;2023-03-23T02:09:44;3.70;;;1.52;;
28192;SDS011;15473;50.840;3.396;2023-03-23T02:12:14;4.17;;;1.50;;
28192;SDS011;15473;50.840;3.396;2023-03-23T02:14:44;3.10;;;1.12;;
28192;SDS011;15473;50.840;3.396;2023-03-23T02:17:21;3.60;;;1.40;;
28192;SDS011;15473;50.840;3.396;2023-03-23T02:20:10;4.12;;;1.92;;
28192;SDS011;15473;50.840;3.396;2023-03-23T02:22:43;3.37;;;1.20;;
28192;SDS011;15473;50.840;3.396;2023-03-23T02:28:16;4.90;;;1.50;;
28192;SDS011;15473;50.840;3.396;2023-03-23T02:31:21;2.60;;;1.50;;
28192;SDS011;15473;50.840;3.396;2023-03-23T02:34:29;4.08;;;1.45;;
28192;SDS011;15473;50.840;3.396;2023-03-23T02:36:39;1.85;;;1.42;;
28192;SDS011;15473;50.840;3.396;2023-03-23T02:42:24;4.40;;;1.70;;
28192;SDS011;15473;50.840;3.396;2023-03-23T02:44:52;2.15;;;1.25;;
28192;SDS011;15473;50.840;3.396;2023-03-23T02:47:24;7.42;;;1.42;;
28192;SDS011;15473;50.840;3.396;2023-03-23T02:50:03;1.62;;;1.22;;
28192;SDS011;15473;50.840;3.396;2023-03-23T02:52:52;3.87;;;1.47;;
28192;SDS011;15473;50.840;3.396;2023-03-23T02:55:27;5.15;;;1.55;;
28192;SDS011;15473;50.840;3.396;2023-03-23T02:57:59;2.85;;;1.60;;
28192;SDS011;15473;50.840;3.396;2023-03-23T03:00:30;2.85;;;1.12;;
28192;SDS011;15473;50.840;3.396;2023-03-23T03:03:00;2.95;;;1.32;;
28192;SDS011;15473;50.840;3.396;2023-03-23T03:05:36;1.45;;;1.30;;
28192;SDS011;15473;50.840;3.396;2023-03-23T03:16:37;3.00;;;2.02;;
28192;SDS011;15473;50.840;3.396;2023-03-23T03:22:09;4.17;;;1.12;;
28192;SDS011;15473;50.840;3.396;2023-03-23T03:24:41;4.25;;;1.92;;
28192;SDS011;15473;50.840;3.396;2023-03-23T03:27:18;2.50;;;1.25;;
28192;SDS011;15473;50.840;3.396;2023-03-23T03:29:53;2.87;;;1.70;;
28192;SDS011;15473;50.840;3.396;2023-03-23T03:32:44;2.58;;;1.25;;
28192;SDS011;15473;50.840;3.396;2023-03-23T03:35:12;4.08;;;1.95;;
28192;SDS011;15473;50.840;3.396;2023-03-23T03:37:45;2.62;;;1.52;;
28192;SDS011;15473;50.840;3.396;2023-03-23T03:40:17;3.83;;;1.70;;
28192;SDS011;15473;50.840;3.396;2023-03-23T03:42:49;4.75;;;1.62;;
28192;SDS011;15473;50.840;3.396;2023-03-23T03:45:19;5.20;;;1.32;;
28192;SDS011;15473;50.840;3.396;2023-03-23T03:47:49;5.95;;;1.20;;
28192;SDS011;15473;50.840;3.396;2023-03-23T03:50:19;5.83;;;1.32;;
28192;SDS011;15473;50.840;3.396;2023-03-23T03:52:49;5.50;;;1.55;;
28192;SDS011;15473;50.840;3.396;2023-03-23T03:55:20;5.72;;;1.55;;
28192;SDS011;15473;50.840;3.396;2023-03-23T03:57:50;7.08;;;1.82;;
28192;SDS011;15473;50.840;3.396;2023-03-23T04:00:20;1.90;;;1.37;;
28192;SDS011;15473;50.840;3.396;2023-03-23T04:02:53;3.10;;;1.82;;
28192;SDS011;15473;50.840;3.396;2023-03-23T04:05:24;6.22;;;1.60;;
28192;SDS011;15473;50.840;3.396;2023-03-23T04:08:02;4.30;;;1.85;;
28192;SDS011;15473;50.840;3.396;2023-03-23T04:10:39;4.70;;;1.22;;
28192;SDS011;15473;50.840;3.396;2023-03-23T04:13:21;5.75;;;1.67;;
28192;SDS011;15473;50.840;3.396;2023-03-23T04:15:51;5.83;;;1.92;;
28192;SDS011;15473;50.840;3.396;2023-03-23T04:18:21;5.70;;;1.45;;
28192;SDS011;15473;50.840;3.396;2023-03-23T04:21:04;6.58;;;1.67;;
28192;SDS011;15473;50.840;3.396;2023-03-23T04:23:44;4.08;;;1.47;;
28192;SDS011;15473;50.840;3.396;2023-03-23T04:26:15;5.62;;;2.08;;
28192;SDS011;15473;50.840;3.396;2023-03-23T04:28:45;3.75;;;1.37;;
28192;SDS011;15473;50.840;3.396;2023-03-23T04:31:16;6.47;;;1.65;;
28192;SDS011;15473;50.840;3.396;2023-03-23T04:33:46;4.47;;;1.90;;
28192;SDS011;15473;50.840;3.396;2023-03-23T04:36:20;9.00;;;2.05;;
28192;SDS011;15473;50.840;3.396;2023-03-23T04:38:51;6.90;;;1.70;;
28192;SDS011;15473;50.840;3.396;2023-03-23T04:41:23;5.55;;;1.70;;
28192;SDS011;15473;50.840;3.396;2023-03-23T04:43:53;8.05;;;1.75;;
28192;SDS011;15473;50.840;3.396;2023-03-23T04:46:26;7.87;;;1.85;;
28192;SDS011;15473;50.840;3.396;2023-03-23T04:48:57;8.88;;;1.77;;
28192;SDS011;15473;50.840;3.396;2023-03-23T04:51:49;6.05;;;1.57;;
28192;SDS011;15473;50.840;3.396;2023-03-23T04:54:20;12.58;;;2.12;;
28192;SDS011;15473;50.840;3.396;2023-03-23T04:56:50;6.95;;;1.77;;
28192;SDS011;15473;50.840;3.396;2023-03-23T04:59:21;11.90;;;2.55;;
28192;SDS011;15473;50.840;3.396;2023-03-23T05:01:53;4.83;;;1.35;;
28192;SDS011;15473;50.840;3.396;2023-03-23T05:04:45;7.55;;;1.72;;
28192;SDS011;15473;50.840;3.396;2023-03-23T05:07:15;3.20;;;1.60;;
28192;SDS011;15473;50.840;3.396;2023-03-23T05:09:51;3.70;;;1.87;;
28192;SDS011;15473;50.840;3.396;2023-03-23T05:12:22;6.28;;;1.85;;
28192;SDS011;15473;50.840;3.396;2023-03-23T05:15:06;8.00;;;1.67;;
28192;SDS011;15473;50.840;3.396;2023-03-23T05:17:38;9.05;;;2.22;;
28192;SDS011;15473;50.840;3.396;2023-03-23T05:20:14;8.70;;;1.90;;
28192;SDS011;15473;50.840;3.396;2023-03-23T05:22:44;5.40;;;1.40;;
28192;SDS011;15473;50.840;3.396;2023-03-23T05:25:17;3.37;;;1.80;;
28192;SDS011;15473;50.840;3.396;2023-03-23T05:27:48;4.90;;;1.40;;
28192;SDS011;15473;50.840;3.396;2023-03-23T05:30:20;5.28;;;1.30;;
28192;SDS011;15473;50.840;3.396;2023-03-23T05:32:50;8.15;;;2.05;;
28192;SDS011;15473;50.840;3.396;2023-03-23T05:35:22;4.58;;;1.22;;
28192;SDS011;15473;50.840;3.396;2023-03-23T05:37:52;5.53;;;1.10;;
28192;SDS011;15473;50.840;3.396;2023-03-23T05:40:24;1.65;;;0.98;;
28192;SDS011;15473;50.840;3.396;2023-03-23T05:42:56;0.57;;;0.57;;
28192;SDS011;15473;50.840;3.396;2023-03-23T05:45:27;5.15;;;0.88;;
28192;SDS011;15473;50.840;3.396;2023-03-23T05:48:08;4.50;;;1.00;;
28192;SDS011;15473;50.840;3.396;2023-03-23T05:50:39;4.65;;;0.90;;
28192;SDS011;15473;50.840;3.396;2023-03-23T05:53:09;6.33;;;1.15;;
28192;SDS011;15473;50.840;3.396;2023-03-23T05:55:45;3.10;;;1.65;;
28192;SDS011;15473;50.840;3.396;2023-03-23T05:58:21;5.37;;;1.20;;
28192;SDS011;15473;50.840;3.396;2023-03-23T06:00:52;1.42;;;0.80;;
28192;SDS011;15473;50.840;3.396;2023-03-23T06:03:29;7.30;;;2.42;;
28192;SDS011;15473;50.840;3.396;2023-03-23T06:05:59;5.17;;;2.05;;
28192;SDS011;15473;50.840;3.396;2023-03-23T06:08:43;6.35;;;1.25;;
28192;SDS011;15473;50.840;3.396;2023-03-23T06:11:13;4.42;;;1.45;;
28192;SDS011;15473;50.840;3.396;2023-03-23T06:13:55;5.15;;;1.05;;
28192;SDS011;15473;50.840;3.396;2023-03-23T06:16:29;9.90;;;1.57;;
28192;SDS011;15473;50.840;3.396;2023-03-23T06:18:59;4.90;;;1.35;;
28192;SDS011;15473;50.840;3.396;2023-03-23T06:21:34;11.08;;;1.40;;
28192;SDS011;15473;50.840;3.396;2023-03-23T06:24:06;2.92;;;1.32;;
28192;SDS011;15473;50.840;3.396;2023-03-23T06:26:38;3.75;;;1.67;;
28192;SDS011;15473;50.840;3.396;2023-03-23T06:29:14;3.12;;;1.20;;
28192;SDS011;15473;50.840;3.396;2023-03-23T06:31:49;10.03;;;1.95;;
28192;SDS011;15473;50.840;3.396;2023-03-23T06:34:23;4.53;;;1.77;;
28192;SDS011;15473;50.840;3.396;2023-03-23T06:36:53;8.65;;;1.90;;
28192;SDS011;15473;50.840;3.396;2023-03-23T06:39:25;7.87;;;1.50;;
28192;SDS011;15473;50.840;3.396;2023-03-23T06:41:57;6.03;;;1.75;;
28192;SDS011;15473;50.840;3.396;2023-03-23T06:44:27;2.08;;;1.10;;
28192;SDS011;15473;50.840;3.396;2023-03-23T06:46:57;9.23;;;1.98;;
28192;SDS011;15473;50.840;3.396;2023-03-23T06:49:29;1.75;;;1.50;;
28192;SDS011;15473;50.840;3.396;2023-03-23T06:52:00;10.05;;;1.82;;
28192;SDS011;15473;50.840;3.396;2023-03-23T06:54:33;6.22;;;1.65;;
28192;SDS011;15473;50.840;3.396;2023-03-23T06:57:05;5.37;;;1.45;;
28192;SDS011;15473;50.840;3.396;2023-03-23T06:59:35;6.22;;;2.30;;
28192;SDS011;15473;50.840;3.396;2023-03-23T07:02:05;4.75;;;1.72;;
28192;SDS011;15473;50.840;3.396;2023-03-23T07:04:38;10.28;;;1.35;;
28192;SDS011;15473;50.840;3.396;2023-03-23T07:07:10;6.33;;;1.40;;
28192;SDS011;15473;50.840;3.396;2023-03-23T07:09:49;4.72;;;2.10;;
28192;SDS011;15473;50.840;3.396;2023-03-23T07:12:19;4.50;;;1.42;;
28192;SDS011;15473;50.840;3.396;2023-03-23T07:14:51;10.23;;;1.50;;
28192;SDS011;15473;50.840;3.396;2023-03-23T07:17:21;4.92;;;1.42;;
28192;SDS011;15473;50.840;3.396;2023-03-23T07:19:51;4.70;;;2.15;;
28192;SDS011;15473;50.840;3.396;2023-03-23T07:22:21;8.03;;;1.50;;
28192;SDS011;15473;50.840;3.396;2023-03-23T07:25:02;5.75;;;1.37;;
28192;SDS011;15473;50.840;3.396;2023-03-23T07:27:33;7.03;;;1.30;;
28192;SDS011;15473;50.840;3.396;2023-03-23T07:30:03;5.58;;;1.25;;
28192;SDS011;15473;50.840;3.396;2023-03-23T07:32:48;3.72;;;1.37;;
28192;SDS011;15473;50.840;3.396;2023-03-23T07:35:20;9.43;;;1.30;;
28192;SDS011;15473;50.840;3.396;2023-03-23T07:37:50;2.77;;;1.47;;
28192;SDS011;15473;50.840;3.396;2023-03-23T07:40:23;3.30;;;1.20;;
28192;SDS011;15473;50.840;3.396;2023-03-23T07:42:55;1.32;;;1.02;;
28192;SDS011;15473;50.840;3.396;2023-03-23T07:45:26;4.65;;;1.67;;
28192;SDS011;15473;50.840;3.396;2023-03-23T07:47:58;4.00;;;1.12;;
28192;SDS011;15473;50.840;3.396;2023-03-23T07:50:30;6.72;;;1.30;;
28192;SDS011;15473;50.840;3.396;2023-03-23T07:53:01;1.77;;;1.05;;
28192;SDS011;15473;50.840;3.396;2023-03-23T07:55:31;5.28;;;1.45;;
28192;SDS011;15473;50.840;3.396;2023-03-23T07:58:01;5.50;;;1.52;;
28192;SDS011;15473;50.840;3.396;2023-03-23T08:00:32;6.22;;;1.25;;
28192;SDS011;15473;50.840;3.396;2023-03-23T08:03:13;15.40;;;2.20;;
28192;SDS011;15473;50.840;3.396;2023-03-23T08:05:43;3.00;;;1.37;;
28192;SDS011;15473;50.840;3.396;2023-03-23T08:08:15;8.18;;;1.60;;
28192;SDS011;15473;50.840;3.396;2023-03-23T08:10:46;4.83;;;1.80;;
28192;SDS011;15473;50.840;3.396;2023-03-23T08:13:23;4.78;;;1.92;;
28192;SDS011;15473;50.840;3.396;2023-03-23T08:15:53;3.15;;;1.90;;
28192;SDS011;15473;50.840;3.396;2023-03-23T08:21:11;4.20;;;2.12;;
28192;SDS011;15473;50.840;3.396;2023-03-23T08:23:53;4.67;;;1.70;;
28192;SDS011;15473;50.840;3.396;2023-03-23T08:26:23;4.17;;;1.27;;
28192;SDS011;15473;50.840;3.396;2023-03-23T08:28:54;2.65;;;1.20;;
28192;SDS011;15473;50.840;3.396;2023-03-23T08:31:25;8.20;;;2.10;;
28192;SDS011;15473;50.840;3.396;2023-03-23T08:33:57;3.98;;;1.50;;
28192;SDS011;15473;50.840;3.396;2023-03-23T08:36:27;8.85;;;1.62;;
28192;SDS011;15473;50.840;3.396;2023-03-23T08:38:57;1.92;;;1.70;;
28192;SDS011;15473;50.840;3.396;2023-03-23T08:41:34;4.60;;;1.50;;
28192;SDS011;15473;50.840;3.396;2023-03-23T08:44:16;2.10;;;1.40;;
28192;SDS011;15473;50.840;3.396;2023-03-23T08:46:47;1.95;;;1.20;;
28192;SDS011;15473;50.840;3.396;2023-03-23T08:49:24;4.12;;;1.25;;
28192;SDS011;15473;50.840;3.396;2023-03-23T08:51:56;0.90;;;0.60;;
28192;SDS011;15473;50.840;3.396;2023-03-23T08:54:26;4.12;;;0.98;;
28192;SDS011;15473;50.840;3.396;2023-03-23T08:59:47;2.87;;;1.15;;
28192;SDS011;15473;50.840;3.396;2023-03-23T09:02:18;4.35;;;1.20;;
28192;SDS011;15473;50.840;3.396;2023-03-23T09:04:48;5.78;;;1.00;;
28192;SDS011;15473;50.840;3.396;2023-03-23T09:07:24;1.07;;;0.90;;
28192;SDS011;15473;50.840;3.396;2023-03-23T09:10:09;2.10;;;1.02;;
28192;SDS011;15473;50.840;3.396;2023-03-23T09:12:40;4.53;;;1.57;;
28192;SDS011;15473;50.840;3.396;2023-03-23T09:15:12;3.72;;;1.35;;
28192;SDS011;15473;50.840;3.396;2023-03-23T09:17:44;5.53;;;1.30;;
28192;SDS011;15473;50.840;3.396;2023-03-23T09:23:00;6.35;;;1.40;;
28192;SDS011;15473;50.840;3.396;2023-03-23T09:25:30;3.47;;;1.32;;
28192;SDS011;15473;50.840;3.396;2023-03-23T09:28:00;6.83;;;1.47;;
28192;SDS011;15473;50.840;3.396;2023-03-23T09:30:39;3.85;;;1.72;;
28192;SDS011;15473;50.840;3.396;2023-03-23T09:33:09;3.15;;;1.52;;
28192;SDS011;15473;50.840;3.396;2023-03-23T09:35:39;5.85;;;1.90;;
28192;SDS011;15473;50.840;3.396;2023-03-23T09:38:10;4.03;;;1.47;;
28192;SDS011;15473;50.840;3.396;2023-03-23T09:43:40;8.95;;;1.77;;
28192;SDS011;15473;50.840;3.396;2023-03-23T09:46:18;2.92;;;1.40;;
28192;SDS011;15473;50.840;3.396;2023-03-23T09:49:08;5.08;;;1.52;;
28192;SDS011;15473;50.840;3.396;2023-03-23T09:51:43;6.10;;;1.30;;
28192;SDS011;15473;50.840;3.396;2023-03-23T09:54:38;3.83;;;1.60;;
28192;SDS011;15473;50.840;3.396;2023-03-23T10:00:11;6.70;;;1.90;;
28192;SDS011;15473;50.840;3.396;2023-03-23T10:03:17;7.83;;;1.30;;
28192;SDS011;15473;50.840;3.396;2023-03-23T10:06:08;5.45;;;1.85;;
28192;SDS011;15473;50.840;3.396;2023-03-23T10:11:47;7.33;;;1.80;;
28192;SDS011;15473;50.840;3.396;2023-03-23T10:22:09;6.05;;;1.40;;
28192;SDS011;15473;50.840;3.396;2023-03-23T10:24:43;7.33;;;2.05;;
28192;SDS011;15473;50.840;3.396;2023-03-23T10:27:38;6.70;;;1.70;;
28192;SDS011;15473;50.840;3.396;2023-03-23T10:30:17;7.28;;;2.33;;
28192;SDS011;15473;50.840;3.396;2023-03-23T10:33:46;8.18;;;1.87;;
28192;SDS011;15473;50.840;3.396;2023-03-23T10:35:55;9.13;;;1.75;;
28192;SDS011;15473;50.840;3.396;2023-03-23T10:38:43;6.20;;;1.80;;
28192;SDS011;15473;50.840;3.396;2023-03-23T10:41:21;8.05;;;1.90;;
28192;SDS011;15473;50.840;3.396;2023-03-23T10:44:14;4.37;;;1.75;;
28192;SDS011;15473;50.840;3.396;2023-03-23T10:49:43;7.95;;;1.62;;
28192;SDS011;15473;50.840;3.396;2023-03-23T10:52:34;6.85;;;1.80;;
28192;SDS011;15473;50.840;3.396;2023-03-23T10:55:08;6.62;;;2.02;;
28192;SDS011;15473;50.840;3.396;2023-03-23T10:57:40;13.50;;;2.60;;
28192;SDS011;15473;50.840;3.396;2023-03-23T11:00:17;8.75;;;1.52;;
28192;SDS011;15473;50.840;3.396;2023-03-23T11:08:37;8.50;;;2.33;;
28192;SDS011;15473;50.840;3.396;2023-03-23T11:11:10;5.92;;;1.65;;
28192;SDS011;15473;50.840;3.396;2023-03-23T11:13:44;7.25;;;2.65;;
28192;SDS011;15473;50.840;3.396;2023-03-23T11:16:23;6.83;;;2.83;;
28192;SDS011;15473;50.840;3.396;2023-03-23T11:19:21;9.70;;;2.58;;
28192;SDS011;15473;50.840;3.396;2023-03-23T11:21:49;7.00;;;1.65;;
28192;SDS011;15473;50.840;3.396;2023-03-23T11:24:21;7.87;;;2.05;;
28192;SDS011;15473;50.840;3.396;2023-03-23T11:26:53;9.53;;;2.37;;
28192;SDS011;15473;50.840;3.396;2023-03-23T11:29:27;8.20;;;1.90;;
28192;SDS011;15473;50.840;3.396;2023-03-23T11:34:41;10.13;;;2.62;;
28192;SDS011;15473;50.840;3.396;2023-03-23T11:37:14;11.60;;;1.90;;
28192;SDS011;15473;50.840;3.396;2023-03-23T11:39:57;10.82;;;2.05;;
28192;SDS011;15473;50.840;3.396;2023-03-23T11:42:56;6.70;;;1.52;;
28192;SDS011;15473;50.840;3.396;2023-03-23T11:45:34;10.70;;;2.00;;
28192;SDS011;15473;50.840;3.396;2023-03-23T11:51:12;8.13;;;1.72;;
28192;SDS011;15473;50.840;3.396;2023-03-23T11:56:57;13.05;;;2.40;;
28192;SDS011;15473;50.840;3.396;2023-03-23T11:59:28;7.70;;;1.95;;
28192;SDS011;15473;50.840;3.396;2023-03-23T12:13:41;9.93;;;2.22;;
28192;SDS011;15473;50.840;3.396;2023-03-23T12:19:24;8.23;;;1.65;;
28192;SDS011;15473;50.840;3.396;2023-03-23T12:27:42;12.68;;;2.37;;
28192;SDS011;15473;50.840;3.396;2023-03-23T12:30:32;7.58;;;2.12;;
28192;SDS011;15473;50.840;3.396;2023-03-23T12:36:44;13.43;;;2.52;;
28192;SDS011;15473;50.840;3.396;2023-03-23T12:42:41;7.40;;;1.98;;
28192;SDS011;15473;50.840;3.396;2023-03-23T12:48:52;8.80;;;2.20;;
28192;SDS011;15473;50.840;3.396;2023-03-23T12:54:24;6.58;;;1.62;;
28192;SDS011;15473;50.840;3.396;2023-03-23T12:57:27;13.60;;;2.67;;
28192;SDS011;15473;50.840;3.396;2023-03-23T13:00:25;5.05;;;1.80;;
28192;SDS011;15473;50.840;3.396;2023-03-23T13:06:10;4.53;;;1.98;;
28192;SDS011;15473;50.840;3.396;2023-03-23T13:11:39;9.58;;;2.98;;
28192;SDS011;15473;50.840;3.396;2023-03-23T13:23:37;11.73;;;2.92;;
28192;SDS011;15473;50.840;3.396;2023-03-23T13:26:17;17.82;;;2.67;;
28192;SDS011;15473;50.840;3.396;2023-03-23T13:29:06;14.00;;;2.90;;
28192;SDS011;15473;50.840;3.396;2023-03-23T13:31:46;12.25;;;2.83;;
28192;SDS011;15473;50.840;3.396;2023-03-23T13:34:25;12.85;;;2.65;;
28192;SDS011;15473;50.840;3.396;2023-03-23T13:36:58;11.30;;;2.87;;
28192;SDS011;15473;50.840;3.396;2023-03-23T13:42:50;10.55;;;2.90;;
28192;SDS011;15473;50.840;3.396;2023-03-23T13:45:44;10.98;;;2.25;;
28192;SDS011;15473;50.840;3.396;2023-03-23T13:50:53;4.50;;;1.52;;
28192;SDS011;15473;50.840;3.396;2023-03-23T13:53:42;8.98;;;1.87;;
28192;SDS011;15473;50.840;3.396;2023-03-23T13:56:18;11.45;;;1.70;;
28192;SDS011;15473;50.840;3.396;2023-03-23T13:58:51;5.95;;;1.90;;
28192;SDS011;15473;50.840;3.396;2023-03-23T14:01:37;8.05;;;1.98;;
28192;SDS011;15473;50.840;3.396;2023-03-23T14:04:07;6.42;;;1.90;;
28192;SDS011;15473;50.840;3.396;2023-03-23T14:06:56;14.05;;;2.10;;
28192;SDS011;15473;50.840;3.396;2023-03-23T14:09:37;8.20;;;2.10;;
28192;SDS011;15473;50.840;3.396;2023-03-23T14:15:00;7.12;;;2.47;;
28192;SDS011;15473;50.840;3.396;2023-03-23T14:17:41;9.85;;;3.35;;
28192;SDS011;15473;50.840;3.396;2023-03-23T14:20:26;9.95;;;2.37;;
28192;SDS011;15473;50.840;3.396;2023-03-23T14:23:15;8.95;;;2.35;;
28192;SDS011;15473;50.840;3.396;2023-03-23T14:26:12;9.13;;;2.70;;
28192;SDS011;15473;50.840;3.396;2023-03-23T14:28:52;12.63;;;3.12;;
28192;SDS011;15473;50.840;3.396;2023-03-23T14:31:25;10.15;;;2.70;;
28192;SDS011;15473;50.840;3.396;2023-03-23T14:33:56;10.55;;;2.65;;
28192;SDS011;15473;50.840;3.396;2023-03-23T14:36:47;10.15;;;2.33;;
28192;SDS011;15473;50.840;3.396;2023-03-23T14:39:19;9.58;;;2.05;;
28192;SDS011;15473;50.840;3.396;2023-03-23T14:41:53;8.53;;;1.72;;
28192;SDS011;15473;50.840;3.396;2023-03-23T14:44:33;6.87;;;2.47;;
28192;SDS011;15473;50.840;3.396;2023-03-23T14:47:06;8.25;;;2.20;;
28192;SDS011;15473;50.840;3.396;2023-03-23T14:49:40;8.98;;;2.30;;
28192;SDS011;15473;50.840;3.396;2023-03-23T14:52:16;12.55;;;1.95;;
28192;SDS011;15473;50.840;3.396;2023-03-23T14:57:29;6.60;;;2.00;;
28192;SDS011;15473;50.840;3.396;2023-03-23T14:59:59;10.50;;;2.33;;
28192;SDS011;15473;50.840;3.396;2023-03-23T15:02:37;8.23;;;2.17;;
28192;SDS011;15473;50.840;3.396;2023-03-23T15:05:18;7.20;;;2.05;;
28192;SDS011;15473;50.840;3.396;2023-03-23T15:07:53;6.37;;;2.05;;
28192;SDS011;15473;50.840;3.396;2023-03-23T15:10:32;14.60;;;2.45;;
28192;SDS011;15473;50.840;3.396;2023-03-23T15:13:03;11.78;;;2.50;;
28192;SDS011;15473;50.840;3.396;2023-03-23T15:15:34;12.28;;;4.05;;
28192;SDS011;15473;50.840;3.396;2023-03-23T15:18:05;13.20;;;2.77;;
28192;SDS011;15473;50.840;3.396;2023-03-23T15:20:47;8.43;;;3.42;;
28192;SDS011;15473;50.840;3.396;2023-03-23T15:23:41;8.08;;;2.25;;
28192;SDS011;15473;50.840;3.396;2023-03-23T15:29:11;9.48;;;2.58;;
28192;SDS011;15473;50.840;3.396;2023-03-23T15:31:43;8.13;;;2.45;;
28192;SDS011;15473;50.840;3.396;2023-03-23T15:34:20;12.28;;;2.35;;
28192;SDS011;15473;50.840;3.396;2023-03-23T15:37:19;11.97;;;2.70;;
28192;SDS011;15473;50.840;3.396;2023-03-23T15:39:52;11.70;;;2.27;;
28192;SDS011;15473;50.840;3.396;2023-03-23T15:42:31;9.50;;;3.17;;
28192;SDS011;15473;50.840;3.396;2023-03-23T15:50:17;7.95;;;2.58;;
28192;SDS011;15473;50.840;3.396;2023-03-23T15:52:57;8.15;;;2.30;;
28192;SDS011;15473;50.840;3.396;2023-03-23T15:55:35;13.80;;;1.42;;
28192;SDS011;15473;50.840;3.396;2023-03-23T15:58:10;8.88;;;2.00;;
28192;SDS011;15473;50.840;3.396;2023-03-23T16:00:48;4.92;;;1.70;;
28192;SDS011;15473;50.840;3.396;2023-03-23T16:03:24;7.22;;;1.55;;
28192;SDS011;15473;50.840;3.396;2023-03-23T16:06:00;5.58;;;1.35;;
28192;SDS011;15473;50.840;3.396;2023-03-23T16:08:30;5.00;;;1.45;;
28192;SDS011;15473;50.840;3.396;2023-03-23T16:11:00;10.20;;;1.80;;
28192;SDS011;15473;50.840;3.396;2023-03-23T16:13:30;5.37;;;2.27;;
28192;SDS011;15473;50.840;3.396;2023-03-23T16:16:05;8.40;;;2.17;;
28192;SDS011;15473;50.840;3.396;2023-03-23T16:18:43;9.95;;;2.17;;
28192;SDS011;15473;50.840;3.396;2023-03-23T16:21:20;11.15;;;2.00;;
28192;SDS011;15473;50.840;3.396;2023-03-23T16:23:54;6.17;;;1.82;;
28192;SDS011;15473;50.840;3.396;2023-03-23T16:26:29;12.80;;;2.17;;
28192;SDS011;15473;50.840;3.396;2023-03-23T16:29:13;10.50;;;2.27;;
28192;SDS011;15473;50.840;3.396;2023-03-23T16:31:44;11.45;;;2.58;;
28192;SDS011;15473;50.840;3.396;2023-03-23T16:34:18;8.98;;;2.80;;
28192;SDS011;15473;50.840;3.396;2023-03-23T16:36:48;14.28;;;2.80;;
28192;SDS011;15473;50.840;3.396;2023-03-23T16:39:32;9.83;;;2.52;;
28192;SDS011;15473;50.840;3.396;2023-03-23T16:42:09;9.48;;;2.40;;
28192;SDS011;15473;50.840;3.396;2023-03-23T16:44:54;9.13;;;2.35;;
28192;SDS011;15473;50.840;3.396;2023-03-23T16:47:25;6.58;;;2.02;;
28192;SDS011;15473;50.840;3.396;2023-03-23T16:50:03;10.05;;;2.15;;
28192;SDS011;15473;50.840;3.396;2023-03-23T16:52:46;6.40;;;1.92;;
28192;SDS011;15473;50.840;3.396;2023-03-23T16:55:17;14.18;;;3.20;;
28192;SDS011;15473;50.840;3.396;2023-03-23T16:57:47;9.43;;;2.27;;
28192;SDS011;15473;50.840;3.396;2023-03-23T17:00:23;6.60;;;2.08;;
28192;SDS011;15473;50.840;3.396;2023-03-23T17:02:54;12.18;;;2.30;;
28192;SDS011;15473;50.840;3.396;2023-03-23T17:05:27;10.38;;;3.55;;
28192;SDS011;15473;50.840;3.396;2023-03-23T17:08:05;13.35;;;2.85;;
28192;SDS011;15473;50.840;3.396;2023-03-23T17:10:36;6.85;;;2.47;;
28192;SDS011;15473;50.840;3.396;2023-03-23T17:13:09;10.20;;;2.60;;
28192;SDS011;15473;50.840;3.396;2023-03-23T17:15:40;9.43;;;3.55;;
28192;SDS011;15473;50.840;3.396;2023-03-23T17:18:11;6.37;;;2.58;;
28192;SDS011;15473;50.840;3.396;2023-03-23T17:20:48;14.13;;;2.75;;
28192;SDS011;15473;50.840;3.396;2023-03-23T17:23:26;11.88;;;3.10;;
28192;SDS011;15473;50.840;3.396;2023-03-23T17:26:11;14.47;;;2.80;;
28192;SDS011;15473;50.840;3.396;2023-03-23T17:28:41;10.95;;;2.30;;
28192;SDS011;15473;50.840;3.396;2023-03-23T17:31:11;5.60;;;2.90;;
28192;SDS011;15473;50.840;3.396;2023-03-23T17:33:48;14.18;;;2.33;;
28192;SDS011;15473;50.840;3.396;2023-03-23T17:36:31;12.10;;;2.75;;
28192;SDS011;15473;50.840;3.396;2023-03-23T17:39:02;8.63;;;2.83;;
28192;SDS011;15473;50.840;3.396;2023-03-23T17:41:33;7.58;;;2.80;;
28192;SDS011;15473;50.840;3.396;2023-03-23T17:44:04;10.53;;;2.33;;
28192;SDS011;15473;50.840;3.396;2023-03-23T17:46:34;14.75;;;2.80;;